createdAt,value
2022-11-07T00:01:51.534Z,-0.30
2022-11-07T00:04:19.574Z,-0.30
2022-11-07T00:06:47.640Z,-0.50
2022-11-07T00:09:17.093Z,-0.50
2022-11-07T00:11:46.490Z,-0.30
2022-11-07T00:14:15.847Z,-0.20
2022-11-07T00:16:44.955Z,-0.30
2022-11-07T00:19:15.275Z,-0.20
2022-11-07T00:21:43.425Z,-0.20
2022-11-07T00:24:11.991Z,-0.20
2022-11-07T00:26:40.060Z,-0.10
2022-11-07T00:29:14.555Z,-0.20
2022-11-07T00:31:42.657Z,-0.30
2022-11-07T00:34:10.934Z,-0.40
2022-11-07T00:36:38.930Z,-0.30
2022-11-07T00:39:07.895Z,-0.20
2022-11-07T00:41:36.200Z,-0.10
2022-11-07T00:44:04.276Z,-0.10
2022-11-07T00:46:33.898Z,-0.10
2022-11-07T00:49:02.081Z,-0.20
2022-11-07T00:51:30.669Z,0.00
2022-11-07T00:53:59.062Z,0.00
2022-11-07T00:56:27.226Z,0.00
2022-11-07T00:58:57.239Z,0.10
2022-11-07T01:01:28.145Z,0.10
2022-11-07T01:04:16.387Z,0.10
2022-11-07T01:06:46.856Z,0.10
2022-11-07T01:09:18.641Z,0.20
2022-11-07T01:11:46.821Z,0.20
2022-11-07T01:14:16.792Z,0.20
2022-11-07T01:16:45.558Z,0.30
2022-11-07T01:19:14.935Z,0.10
2022-11-07T01:21:43.726Z,0.20
2022-11-07T01:24:13.653Z,0.30
2022-11-07T01:26:43.342Z,0.20
2022-11-07T01:29:11.838Z,0.20
2022-11-07T01:31:39.847Z,0.30
2022-11-07T01:34:07.859Z,0.30
2022-11-07T01:36:38.597Z,0.30
2022-11-07T01:39:06.746Z,0.40
2022-11-07T01:41:41.651Z,0.30
2022-11-07T01:44:47.433Z,0.40
2022-11-07T01:47:18.077Z,0.40
2022-11-07T01:49:46.134Z,0.40
2022-11-07T01:52:20.534Z,0.60
2022-11-07T01:54:58.184Z,0.70
2022-11-07T01:57:30.481Z,0.70
2022-11-07T02:00:02.881Z,0.70
2022-11-07T02:02:31.043Z,0.70
2022-11-07T02:05:01.381Z,0.80
2022-11-07T02:07:31.117Z,0.90
2022-11-07T02:09:59.961Z,0.90
2022-11-07T02:12:29.241Z,1.00
2022-11-07T02:14:58.063Z,1.00
2022-11-07T02:17:26.173Z,1.10
2022-11-07T02:19:56.654Z,1.10
2022-11-07T02:22:35.547Z,1.20
2022-11-07T02:25:08.524Z,1.10
2022-11-07T02:27:37.960Z,1.30
2022-11-07T02:30:08.916Z,1.40
2022-11-07T02:32:37.152Z,1.40
2022-11-07T02:35:09.366Z,1.20
2022-11-07T02:37:39.688Z,1.40
2022-11-07T02:40:11.410Z,1.30
2022-11-07T02:42:46.673Z,1.40
2022-11-07T02:45:19.946Z,1.50
2022-11-07T02:47:47.986Z,1.50
2022-11-07T02:50:17.100Z,1.50
2022-11-07T02:52:45.110Z,1.60
2022-11-07T02:55:16.024Z,1.70
2022-11-07T02:57:44.531Z,1.80
2022-11-07T03:00:15.249Z,1.80
2022-11-07T03:02:47.187Z,1.80
2022-11-07T03:05:16.254Z,1.90
2022-11-07T03:07:44.769Z,2.00
2022-11-07T03:10:14.948Z,1.90
2022-11-07T03:12:43.661Z,2.00
2022-11-07T03:15:13.197Z,2.00
2022-11-07T03:17:41.311Z,2.20
2022-11-07T03:20:10.673Z,2.30
2022-11-07T03:22:38.752Z,2.40
2022-11-07T03:25:07.716Z,2.50
2022-11-07T03:27:37.098Z,2.50
2022-11-07T03:30:05.659Z,2.50
2022-11-07T03:32:34.806Z,2.60
2022-11-07T03:35:02.803Z,2.60
2022-11-07T03:37:31.005Z,2.50
2022-11-07T03:39:59.005Z,2.60
2022-11-07T03:42:27.031Z,2.80
2022-11-07T03:44:56.370Z,2.80
2022-11-07T03:47:24.378Z,2.90
2022-11-07T03:49:52.567Z,3.00
2022-11-07T03:52:20.537Z,3.00
2022-11-07T03:54:48.607Z,2.90
2022-11-07T03:57:16.665Z,2.90
2022-11-07T03:59:44.682Z,3.00
2022-11-07T04:02:14.128Z,3.10
2022-11-07T04:04:42.527Z,3.40
2022-11-07T04:07:10.667Z,3.50
2022-11-07T04:09:38.802Z,3.50
2022-11-07T04:12:24.945Z,3.30
2022-11-07T04:15:11.035Z,3.30
2022-11-07T04:17:40.399Z,3.30
2022-11-07T04:20:09.854Z,3.50
2022-11-07T04:22:37.846Z,3.50
2022-11-07T04:25:06.485Z,3.40
2022-11-07T04:27:42.334Z,3.50
2022-11-07T04:30:24.471Z,3.60
2022-11-07T04:32:55.822Z,3.30
2022-11-07T04:35:26.425Z,3.30
2022-11-07T04:37:54.593Z,3.40
2022-11-07T04:40:23.182Z,3.50
2022-11-07T04:42:51.830Z,3.50
2022-11-07T04:45:20.057Z,3.60
2022-11-07T04:47:48.104Z,3.50
2022-11-07T04:50:19.335Z,3.50
2022-11-07T04:52:48.100Z,3.40
2022-11-07T04:55:21.853Z,3.20
2022-11-07T04:57:50.183Z,3.20
2022-11-07T05:00:20.034Z,3.30
2022-11-07T05:02:49.035Z,3.20
2022-11-07T05:05:20.463Z,3.30
2022-11-07T05:07:48.939Z,3.40
2022-11-07T05:10:20.836Z,3.40
2022-11-07T05:12:49.384Z,3.40
2022-11-07T05:15:17.724Z,3.50
2022-11-07T05:17:47.466Z,3.70
2022-11-07T05:20:31.940Z,3.70
2022-11-07T05:23:19.394Z,3.70
2022-11-07T05:25:49.448Z,3.60
2022-11-07T05:28:22.214Z,3.50
2022-11-07T05:30:59.252Z,3.60
2022-11-07T05:33:27.886Z,3.40
2022-11-07T05:35:57.256Z,3.70
2022-11-07T05:38:25.419Z,3.90
2022-11-07T05:40:53.384Z,3.80
2022-11-07T05:43:21.386Z,3.60
2022-11-07T05:45:49.453Z,3.50
2022-11-07T05:48:17.474Z,3.40
2022-11-07T05:50:45.445Z,3.40
2022-11-07T05:53:15.151Z,3.40
2022-11-07T05:55:43.628Z,3.10
2022-11-07T05:58:12.135Z,3.10
2022-11-07T06:00:40.623Z,3.20
2022-11-07T06:03:09.081Z,3.30
2022-11-07T06:05:38.667Z,3.40
2022-11-07T06:08:07.507Z,3.20
2022-11-07T06:10:37.118Z,3.20
2022-11-07T06:13:06.952Z,3.10
2022-11-07T06:15:37.148Z,3.20
2022-11-07T06:18:08.961Z,3.20
2022-11-07T06:20:37.162Z,3.50
2022-11-07T06:23:07.033Z,3.70
2022-11-07T06:25:37.093Z,3.70
2022-11-07T06:28:07.086Z,3.70
2022-11-07T06:30:35.514Z,3.70
2022-11-07T06:33:05.017Z,3.70
2022-11-07T06:35:33.413Z,3.50
2022-11-07T06:38:03.509Z,3.40
2022-11-07T06:40:31.865Z,3.50
2022-11-07T06:43:08.094Z,3.60
2022-11-07T06:45:36.543Z,3.40
2022-11-07T06:48:05.271Z,3.40
2022-11-07T06:50:33.914Z,3.50
2022-11-07T06:53:05.511Z,3.70
2022-11-07T06:55:35.382Z,3.70
2022-11-07T06:58:03.791Z,3.90
2022-11-07T07:00:35.201Z,4.20
2022-11-07T07:03:03.464Z,4.30
2022-11-07T07:05:32.940Z,4.30
2022-11-07T07:08:00.975Z,4.40
2022-11-07T07:10:29.057Z,4.50
2022-11-07T07:12:57.544Z,4.60
2022-11-07T07:15:25.660Z,4.90
2022-11-07T07:17:55.214Z,5.00
2022-11-07T07:20:23.514Z,5.20
2022-11-07T07:22:57.854Z,5.30
2022-11-07T07:25:28.460Z,5.50
2022-11-07T07:27:56.434Z,6.00
2022-11-07T07:30:24.419Z,6.50
2022-11-07T07:32:54.109Z,7.00
2022-11-07T07:35:22.924Z,7.20
2022-11-07T07:37:51.891Z,7.60
2022-11-07T07:40:20.793Z,7.70
2022-11-07T07:42:49.123Z,7.50
2022-11-07T07:45:17.706Z,7.50
2022-11-07T07:47:45.866Z,7.90
2022-11-07T07:50:15.801Z,8.20
2022-11-07T07:52:43.775Z,9.00
2022-11-07T07:55:11.989Z,9.00
2022-11-07T07:57:41.154Z,9.30
2022-11-07T08:00:10.684Z,9.40
2022-11-07T08:02:38.742Z,9.10
2022-11-07T08:05:07.697Z,9.00
2022-11-07T08:07:37.335Z,8.90
2022-11-07T08:10:35.213Z,8.90
2022-11-07T08:12:54.297Z,8.70
2022-11-07T08:15:22.641Z,8.50
2022-11-07T08:17:50.960Z,8.60
2022-11-07T08:20:20.814Z,8.60
2022-11-07T08:22:50.258Z,8.50
2022-11-07T08:25:18.624Z,8.40
2022-11-07T08:27:46.590Z,8.20
2022-11-07T08:30:17.946Z,8.30
2022-11-07T08:32:47.471Z,8.30
2022-11-07T08:35:15.574Z,8.50
2022-11-07T08:37:43.542Z,8.80
2022-11-07T08:40:15.094Z,8.80
2022-11-07T08:42:43.113Z,8.80
2022-11-07T08:45:15.950Z,8.70
2022-11-07T08:47:44.016Z,8.90
2022-11-07T08:50:12.054Z,9.20
2022-11-07T08:52:40.075Z,9.50
2022-11-07T08:55:08.943Z,9.50
2022-11-07T08:57:38.354Z,9.40
2022-11-07T09:00:07.717Z,9.30
2022-11-07T09:05:24.815Z,8.90
2022-11-07T09:07:52.985Z,8.90
2022-11-07T09:10:21.137Z,8.90
2022-11-07T09:12:52.074Z,9.40
2022-11-07T09:15:21.030Z,9.80
2022-11-07T09:17:50.933Z,10.40
2022-11-07T09:20:19.705Z,10.80
2022-11-07T09:22:48.335Z,10.90
2022-11-07T09:25:16.419Z,10.40
2022-11-07T09:27:44.822Z,10.30
2022-11-07T09:30:15.134Z,10.30
2022-11-07T09:32:45.397Z,10.50
2022-11-07T09:35:17.626Z,10.10
2022-11-07T09:37:45.656Z,10.10
2022-11-07T09:40:25.485Z,10.20
2022-11-07T09:43:07.695Z,10.50
2022-11-07T09:45:51.258Z,10.60
2022-11-07T09:48:24.252Z,10.60
2022-11-07T09:50:53.465Z,10.90
2022-11-07T09:53:29.346Z,11.30
2022-11-07T09:56:01.569Z,11.50
2022-11-07T09:58:34.768Z,11.50
2022-11-07T10:01:06.960Z,11.40
2022-11-07T10:03:37.689Z,11.50
2022-11-07T10:06:16.891Z,11.50
2022-11-07T10:08:51.214Z,12.00
2022-11-07T10:11:34.347Z,11.70
2022-11-07T10:14:11.517Z,11.60
2022-11-07T10:16:55.661Z,11.50
2022-11-07T10:19:46.418Z,11.60
2022-11-07T10:22:37.371Z,11.90
2022-11-07T10:25:22.106Z,11.90
2022-11-07T10:27:56.090Z,12.10
2022-11-07T10:30:24.103Z,12.20
2022-11-07T10:33:03.870Z,12.30
2022-11-07T10:35:34.794Z,12.00
2022-11-07T10:38:15.560Z,11.60
2022-11-07T10:40:44.714Z,11.30
2022-11-07T10:43:21.694Z,11.40
2022-11-07T10:45:50.322Z,10.90
2022-11-07T10:48:19.914Z,10.60
2022-11-07T10:50:54.873Z,10.70
2022-11-07T10:53:26.471Z,10.70
2022-11-07T10:55:55.888Z,10.80
2022-11-07T10:58:26.307Z,10.90
2022-11-07T11:01:04.068Z,10.70
2022-11-07T11:03:44.357Z,10.60
2022-11-07T11:06:23.757Z,10.70
2022-11-07T11:08:53.961Z,10.60
2022-11-07T11:11:30.804Z,10.30
2022-11-07T11:14:04.148Z,10.50
2022-11-07T11:16:36.321Z,10.50
2022-11-07T11:19:07.438Z,10.90
2022-11-07T11:21:44.316Z,11.00
2022-11-07T11:24:24.422Z,11.20
2022-11-07T11:26:54.946Z,11.30
2022-11-07T11:29:35.371Z,11.00
2022-11-07T11:32:06.807Z,11.20
2022-11-07T11:34:45.856Z,10.60
2022-11-07T11:37:19.707Z,10.70
2022-11-07T11:39:52.604Z,10.90
2022-11-07T11:42:31.307Z,11.00
2022-11-07T11:45:04.807Z,11.00
2022-11-07T11:47:38.483Z,11.00
2022-11-07T11:50:19.231Z,10.70
2022-11-07T11:52:48.379Z,10.60
2022-11-07T11:55:18.219Z,10.90
2022-11-07T11:58:02.295Z,11.10
2022-11-07T12:00:39.512Z,11.10
2022-11-07T12:03:25.519Z,11.20
2022-11-07T12:06:15.089Z,11.10
2022-11-07T12:09:07.565Z,11.00
2022-11-07T12:11:45.850Z,11.20
2022-11-07T12:14:34.803Z,10.90
2022-11-07T12:17:06.792Z,11.00
2022-11-07T12:19:43.959Z,11.00
2022-11-07T12:22:20.773Z,11.00
2022-11-07T12:24:57.088Z,11.00
2022-11-07T12:27:33.918Z,11.10
2022-11-07T12:30:11.655Z,11.20
2022-11-07T12:32:49.814Z,11.40
2022-11-07T12:35:35.318Z,11.50
2022-11-07T12:38:18.591Z,11.30
2022-11-07T12:40:56.339Z,11.30
2022-11-07T12:43:35.613Z,11.60
2022-11-07T12:46:11.736Z,11.80
2022-11-07T12:49:01.958Z,12.10
2022-11-07T12:51:44.896Z,12.00
2022-11-07T12:54:38.463Z,12.10
2022-11-07T12:57:15.431Z,11.90
2022-11-07T12:59:49.485Z,11.70
2022-11-07T13:02:35.194Z,12.00
2022-11-07T13:05:17.535Z,12.20
2022-11-07T13:07:51.645Z,12.00
2022-11-07T13:10:27.542Z,12.10
2022-11-07T13:13:01.907Z,12.00
2022-11-07T13:15:47.464Z,12.00
2022-11-07T13:18:22.150Z,11.80
2022-11-07T13:21:00.438Z,11.90
2022-11-07T13:23:29.653Z,11.90
2022-11-07T13:26:10.652Z,11.80
2022-11-07T13:28:58.645Z,11.70
2022-11-07T13:31:36.069Z,11.50
2022-11-07T13:34:25.884Z,11.60
2022-11-07T13:37:00.743Z,11.90
2022-11-07T13:39:30.735Z,11.90
2022-11-07T13:42:01.083Z,12.10
2022-11-07T13:44:33.889Z,12.10
2022-11-07T13:47:06.737Z,11.90
2022-11-07T13:49:44.329Z,12.20
2022-11-07T13:52:21.256Z,12.20
2022-11-07T13:54:53.582Z,12.20
2022-11-07T13:57:28.301Z,12.00
2022-11-07T14:00:00.754Z,12.30
2022-11-07T14:02:30.890Z,12.30
2022-11-07T14:05:16.392Z,12.00
2022-11-07T14:07:48.878Z,11.80
2022-11-07T14:10:24.454Z,12.00
2022-11-07T14:13:04.049Z,11.70
2022-11-07T14:15:32.324Z,11.70
2022-11-07T14:18:00.621Z,11.20
2022-11-07T14:20:29.443Z,11.20
2022-11-07T14:23:00.377Z,11.30
2022-11-07T14:25:30.518Z,11.30
2022-11-07T14:28:01.003Z,11.20
2022-11-07T14:30:30.525Z,11.20
2022-11-07T14:33:00.303Z,11.20
2022-11-07T14:35:31.218Z,11.10
2022-11-07T14:38:00.088Z,10.90
2022-11-07T14:40:28.931Z,10.60
2022-11-07T14:42:57.147Z,10.40
2022-11-07T14:46:05.635Z,10.40
2022-11-07T14:48:19.209Z,10.50
2022-11-07T14:50:48.610Z,10.40
2022-11-07T14:53:22.795Z,10.40
2022-11-07T14:55:53.803Z,10.10
2022-11-07T14:58:24.647Z,9.90
2022-11-07T15:00:56.624Z,9.80
2022-11-07T15:03:32.303Z,9.70
2022-11-07T15:06:00.646Z,9.60
2022-11-07T15:08:31.098Z,9.40
2022-11-07T15:11:05.304Z,9.20
2022-11-07T15:13:34.486Z,9.20
2022-11-07T15:16:07.468Z,9.00
2022-11-07T15:18:40.790Z,8.90
2022-11-07T15:21:26.030Z,8.80
2022-11-07T15:23:55.011Z,8.70
2022-11-07T15:26:25.347Z,8.60
2022-11-07T15:28:55.149Z,8.50
2022-11-07T15:31:27.826Z,8.40
2022-11-07T15:33:58.284Z,8.30
2022-11-07T15:36:26.942Z,8.20
2022-11-07T15:38:56.160Z,7.80
2022-11-07T15:41:24.230Z,7.70
2022-11-07T15:43:52.949Z,7.60
2022-11-07T15:46:26.430Z,7.70
2022-11-07T15:48:54.580Z,7.70
2022-11-07T15:51:22.822Z,7.90
2022-11-07T15:53:50.861Z,7.90
2022-11-07T15:56:22.127Z,8.00
2022-11-07T15:58:51.289Z,8.00
2022-11-07T16:01:19.549Z,8.00
2022-11-07T16:03:49.073Z,7.90
2022-11-07T16:06:22.591Z,7.80
2022-11-07T16:08:50.584Z,7.60
2022-11-07T16:11:18.591Z,7.20
2022-11-07T16:13:46.992Z,7.10
2022-11-07T16:16:20.389Z,7.30
2022-11-07T16:18:52.059Z,7.30
2022-11-07T16:21:20.830Z,7.10
2022-11-07T16:23:49.976Z,6.90
2022-11-07T16:26:27.111Z,6.80
2022-11-07T16:28:55.494Z,6.50
2022-11-07T16:31:23.669Z,6.60
2022-11-07T16:33:53.599Z,6.60
2022-11-07T16:36:24.448Z,6.60
2022-11-07T16:38:53.107Z,6.40
2022-11-07T16:41:21.330Z,6.30
2022-11-07T16:43:49.748Z,6.30
2022-11-07T16:46:19.949Z,6.20
2022-11-07T16:48:50.479Z,6.20
2022-11-07T16:51:22.375Z,6.20
2022-11-07T16:53:50.787Z,6.20
2022-11-07T16:56:24.667Z,6.20
2022-11-07T16:58:54.522Z,6.10
2022-11-07T17:01:24.111Z,5.80
2022-11-07T17:03:52.662Z,5.80
2022-11-07T17:06:27.788Z,5.80
2022-11-07T17:09:01.233Z,5.80
2022-11-07T17:11:34.265Z,5.70
2022-11-07T17:14:02.253Z,5.60
2022-11-07T17:16:34.804Z,5.60
2022-11-07T17:19:03.455Z,5.60
2022-11-07T17:21:36.268Z,5.50
2022-11-07T17:24:04.829Z,5.40
2022-11-07T17:26:36.878Z,5.30
2022-11-07T17:29:06.558Z,4.90
2022-11-07T17:31:34.655Z,4.70
2022-11-07T17:34:02.663Z,4.70
2022-11-07T17:36:37.749Z,4.70
2022-11-07T17:39:13.892Z,4.80
2022-11-07T17:41:42.321Z,4.90
2022-11-07T17:44:11.248Z,4.80
2022-11-07T17:46:43.407Z,4.80
2022-11-07T17:49:14.920Z,4.80
2022-11-07T17:51:44.674Z,4.90
2022-11-07T17:54:14.265Z,5.00
2022-11-07T17:56:42.702Z,4.90
2022-11-07T17:59:14.943Z,4.90
2022-11-07T18:01:44.904Z,5.00
2022-11-07T18:04:15.003Z,5.00
2022-11-07T18:06:44.622Z,5.00
2022-11-07T18:09:15.872Z,4.90
2022-11-07T18:11:45.677Z,5.00
2022-11-07T18:14:15.330Z,5.10
2022-11-07T18:16:43.553Z,5.00
2022-11-07T18:19:12.119Z,4.70
2022-11-07T18:21:40.228Z,4.40
2022-11-07T18:24:11.092Z,4.50
2022-11-07T18:26:40.146Z,4.70
2022-11-07T18:29:14.217Z,4.70
2022-11-07T18:31:43.141Z,4.60
2022-11-07T18:34:13.051Z,4.70
2022-11-07T18:36:43.290Z,4.70
2022-11-07T18:39:15.803Z,4.60
2022-11-07T18:41:44.418Z,4.50
2022-11-07T18:44:13.337Z,4.30
2022-11-07T18:46:42.726Z,4.00
2022-11-07T18:49:12.098Z,4.00
2022-11-07T18:51:40.563Z,4.00
2022-11-07T18:54:08.583Z,3.90
2022-11-07T18:56:38.337Z,4.00
2022-11-07T18:59:06.777Z,4.00
2022-11-07T19:01:35.125Z,3.90
2022-11-07T19:04:05.729Z,3.80
2022-11-07T19:06:34.798Z,3.80
2022-11-07T19:09:03.227Z,3.70
2022-11-07T19:11:33.918Z,3.60
2022-11-07T19:14:04.332Z,3.60
2022-11-07T19:16:32.650Z,3.50
2022-11-07T19:19:01.312Z,3.40
2022-11-07T19:21:29.332Z,3.30
2022-11-07T19:23:57.372Z,3.30
2022-11-07T19:26:25.548Z,3.50
2022-11-07T19:28:55.194Z,3.50
2022-11-07T19:31:24.585Z,3.50
2022-11-07T19:33:52.695Z,3.50
2022-11-07T19:36:21.828Z,3.50
2022-11-07T19:38:50.730Z,3.50
2022-11-07T19:41:19.491Z,3.30
2022-11-07T19:43:49.983Z,3.40
2022-11-07T19:46:24.589Z,3.30
2022-11-07T19:48:53.259Z,3.30
2022-11-07T19:51:23.079Z,3.20
2022-11-07T19:53:55.613Z,2.80
2022-11-07T19:56:24.527Z,2.60
2022-11-07T19:58:52.689Z,2.60
2022-11-07T20:01:28.117Z,2.60
2022-11-07T20:03:57.335Z,2.70
2022-11-07T20:06:27.652Z,2.70
2022-11-07T20:08:55.624Z,2.60
2022-11-07T20:11:25.849Z,2.60
2022-11-07T20:13:58.585Z,2.60
2022-11-07T20:16:31.996Z,2.70
2022-11-07T20:19:00.699Z,2.70
2022-11-07T20:21:29.137Z,2.80
2022-11-07T20:23:59.360Z,2.80
2022-11-07T20:26:29.759Z,2.60
2022-11-07T20:28:59.430Z,2.50
2022-11-07T20:31:28.950Z,2.40
2022-11-07T20:34:00.069Z,2.50
2022-11-07T20:36:28.305Z,2.50
2022-11-07T20:38:56.922Z,2.50
2022-11-07T20:41:25.326Z,2.40
2022-11-07T20:43:55.191Z,2.10
2022-11-07T20:46:23.205Z,1.90
2022-11-07T20:48:51.338Z,1.70
2022-11-07T20:51:23.507Z,1.80
2022-11-07T20:53:51.541Z,1.90
2022-11-07T20:56:20.614Z,1.90
2022-11-07T20:58:49.702Z,2.00
2022-11-07T21:01:20.034Z,2.00
2022-11-07T21:03:48.701Z,2.10
2022-11-07T21:06:17.593Z,2.20
2022-11-07T21:08:49.318Z,2.10
2022-11-07T21:11:18.021Z,2.20
2022-11-07T21:13:51.458Z,2.10
2022-11-07T21:16:21.858Z,2.10
2022-11-07T21:18:55.727Z,2.10
2022-11-07T21:21:27.496Z,2.10
2022-11-07T21:23:58.558Z,2.00
2022-11-07T21:26:28.641Z,2.00
2022-11-07T21:28:57.864Z,2.00
2022-11-07T21:31:32.762Z,2.00
2022-11-07T21:34:00.966Z,2.00
2022-11-07T21:36:30.562Z,2.00
2022-11-07T21:39:01.497Z,1.90
2022-11-07T21:41:30.640Z,1.90
2022-11-07T21:43:58.922Z,1.80
2022-11-07T21:46:28.695Z,1.70
2022-11-07T21:48:57.991Z,1.80
2022-11-07T21:51:28.474Z,1.80
2022-11-07T21:53:56.955Z,1.80
2022-11-07T21:56:27.685Z,1.80
2022-11-07T21:58:58.838Z,1.60
2022-11-07T22:01:27.819Z,1.60
2022-11-07T22:04:06.778Z,1.50
2022-11-07T22:06:37.749Z,1.40
2022-11-07T22:09:06.897Z,1.60
2022-11-07T22:11:36.773Z,1.60
2022-11-07T22:14:05.014Z,1.60
2022-11-07T22:16:33.699Z,1.60
2022-11-07T22:19:01.941Z,1.60
2022-11-07T22:21:31.258Z,1.50
2022-11-07T22:23:59.676Z,1.50
2022-11-07T22:26:29.417Z,1.40
2022-11-07T22:28:58.816Z,1.40
2022-11-07T22:31:30.085Z,1.30
2022-11-07T22:33:59.950Z,1.20
2022-11-07T22:36:28.028Z,0.90
2022-11-07T22:38:57.522Z,0.70
2022-11-07T22:41:27.026Z,0.70
2022-11-07T22:43:56.507Z,0.80
2022-11-07T22:46:27.491Z,0.80
2022-11-07T22:48:56.681Z,0.80
2022-11-07T22:51:27.535Z,0.80
2022-11-07T22:53:59.812Z,0.60
2022-11-07T22:56:27.891Z,0.60
2022-11-07T22:58:56.196Z,0.60
2022-11-07T23:01:27.896Z,0.60
2022-11-07T23:03:57.221Z,0.60
2022-11-07T23:06:26.709Z,0.60
2022-11-07T23:08:56.994Z,0.70
2022-11-07T23:11:46.435Z,0.70
2022-11-07T23:14:17.293Z,0.80
2022-11-07T23:16:48.859Z,0.90
2022-11-07T23:19:18.904Z,0.80
2022-11-07T23:21:46.963Z,0.80
2022-11-07T23:24:15.848Z,0.60
2022-11-07T23:26:44.480Z,0.40
2022-11-07T23:29:15.007Z,0.20
2022-11-07T23:31:45.239Z,0.30
2022-11-07T23:34:15.471Z,0.30
2022-11-07T23:36:44.914Z,0.50
2022-11-07T23:39:15.999Z,0.60
2022-11-07T23:41:44.955Z,0.60
2022-11-07T23:44:14.036Z,0.60
2022-11-07T23:46:59.629Z,0.50
2022-11-07T23:49:46.900Z,0.60
2022-11-07T23:52:15.017Z,0.60
2022-11-07T23:55:01.044Z,0.70
2022-11-07T23:57:29.099Z,0.70
